Time;durP1;ratioP1;P1;durP2;ratioP2;P2;SDS_P1;SDS_P2;PMS_P1;PMS_P2;Temp;Humidity;BMP_temperature;BMP_pressure;BME280_temperature;BME280_humidity;BME280_pressure;Samples;Min_cycle;Max_cycle;Signal;HPM_P1;HPM_P2
2023/03/16 00:01:15;;;;;;;9.23;1.33;;;10.70;99.90;;;;;;5131612;27;20592;-65
2023/03/16 00:03:41;;;;;;;8.50;1.47;;;10.70;99.90;;;;;;5126860;27;20247;-65
2023/03/16 00:06:06;;;;;;;3.23;0.70;;;10.80;99.90;;;;;;5112437;28;20171;-65
2023/03/16 00:08:32;;;;;;;10.27;1.77;;;10.70;99.90;;;;;;5112055;28;20177;-64
2023/03/16 00:10:58;;;;;;;4.10;0.90;;;10.50;99.90;;;;;;5124668;27;20580;-64
2023/03/16 00:13:24;;;;;;;4.00;1.03;;;10.70;99.90;;;;;;5133211;27;20215;-64
2023/03/16 00:16:03;;;;;;;7.63;1.40;;;10.80;99.90;;;;;;5132612;27;20205;-64
2023/03/16 00:18:29;;;;;;;3.80;0.60;;;10.70;99.90;;;;;;5133145;27;20158;-64
2023/03/16 00:20:58;;;;;;;6.73;1.10;;;10.80;99.90;;;;;;5132737;27;20664;-64
2023/03/16 00:23:28;;;;;;;6.63;1.27;;;10.70;99.90;;;;;;5131956;27;20221;-64
2023/03/16 00:25:58;;;;;;;2.60;0.80;;;10.80;99.90;;;;;;5131128;27;20219;-64
2023/03/16 00:28:25;;;;;;;6.93;1.37;;;10.80;99.90;;;;;;5112315;28;20221;-64
2023/03/16 00:30:52;;;;;;;11.70;1.23;;;10.80;99.90;;;;;;5102770;27;20183;-65
2023/03/16 00:33:17;;;;;;;4.33;1.33;;;10.80;99.90;;;;;;5112871;27;20235;-65
2023/03/16 00:35:50;;;;;;;7.83;1.17;;;10.80;99.90;;;;;;5114906;27;20215;-64
2023/03/16 00:38:20;;;;;;;8.17;1.57;;;10.80;99.90;;;;;;5132325;27;20174;-64
2023/03/16 00:40:46;;;;;;;5.57;1.00;;;10.80;99.90;;;;;;5121230;27;20405;-65
2023/03/16 00:43:17;;;;;;;8.10;1.43;;;10.80;99.90;;;;;;5117030;27;20630;-64
2023/03/16 00:45:43;;;;;;;9.17;2.80;;;10.80;99.90;;;;;;5111495;28;20521;-64
2023/03/16 00:48:10;;;;;;;10.43;1.60;;;10.80;99.90;;;;;;5125611;27;20220;-64
2023/03/16 00:50:36;;;;;;;8.30;1.80;;;10.80;99.90;;;;;;5111475;27;20228;-64
2023/03/16 00:53:01;;;;;;;7.90;1.87;;;10.50;99.90;;;;;;5112272;27;20626;-64
2023/03/16 00:55:27;;;;;;;6.53;1.60;;;10.80;99.90;;;;;;5110834;28;20260;-64
2023/03/16 00:57:53;;;;;;;10.87;2.17;;;11.00;99.90;;;;;;5115118;27;20809;-64
2023/03/16 01:00:20;;;;;;;9.17;1.80;;;10.60;99.90;;;;;;5114301;27;20678;-64
2023/03/16 01:02:46;;;;;;;8.53;1.70;;;;;;;;;;5128162;27;20656;-64
2023/03/16 01:05:12;;;;;;;11.30;1.70;;;;;;;;;;5114176;27;20182;-64
2023/03/16 01:07:41;;;;;;;9.23;1.33;;;10.80;99.90;;;;;;5127530;27;20206;-65
2023/03/16 01:10:08;;;;;;;6.93;1.60;;;10.80;99.90;;;;;;5130557;27;20178;-64
2023/03/16 01:12:34;;;;;;;7.23;1.53;;;10.80;99.90;;;;;;5130911;27;20171;-63
2023/03/16 01:15:00;;;;;;;10.87;1.07;;;10.90;99.90;;;;;;5131363;27;20221;-64
2023/03/16 01:17:26;;;;;;;7.87;1.80;;;10.90;99.90;;;;;;5130991;27;20170;-63
2023/03/16 01:19:52;;;;;;;8.93;1.90;;;;;;;;;;5132209;27;20201;-63
2023/03/16 01:22:18;;;;;;;13.63;1.60;;;10.80;99.90;;;;;;5131397;27;20166;-63
2023/03/16 01:24:44;;;;;;;9.83;1.73;;;12.30;99.90;;;;;;5130299;27;20177;-64
2023/03/16 01:27:11;;;;;;;7.93;0.73;;;10.80;99.90;;;;;;5131250;27;20272;-64
2023/03/16 01:29:38;;;;;;;9.13;1.60;;;10.80;99.90;;;;;;5129488;27;20617;-64
2023/03/16 01:32:05;;;;;;;6.37;1.80;;;10.90;99.90;;;;;;5130908;27;20169;-64
2023/03/16 01:34:31;;;;;;;12.60;1.53;;;10.80;99.90;;;;;;5131961;27;20659;-64
2023/03/16 01:36:57;;;;;;;12.03;1.47;;;10.70;99.90;;;;;;5131034;27;20173;-65
2023/03/16 01:39:22;;;;;;;10.90;1.60;;;10.90;99.90;;;;;;5130608;27;20170;-63
2023/03/16 01:41:48;;;;;;;7.70;1.33;;;11.00;99.90;;;;;;5125120;27;20250;-64
2023/03/16 01:44:21;;;;;;;4.53;1.57;;;10.90;99.90;;;;;;5119220;27;20180;-64
2023/03/16 01:46:47;;;;;;;8.00;1.30;;;;;;;;;;5130191;27;20258;-63
2023/03/16 01:49:24;;;;;;;12.23;1.60;;;11.10;99.90;;;;;;5131721;27;20202;-64
2023/03/16 01:51:52;;;;;;;11.70;1.57;;;10.80;99.90;;;;;;5124912;27;20213;-64
2023/03/16 01:54:26;;;;;;;22.87;1.57;;;10.80;99.90;;;;;;5113360;27;20238;-64
2023/03/16 01:57:09;;;;;;;9.37;1.27;;;10.60;99.90;;;;;;5110824;28;20181;-64
2023/03/16 01:59:58;;;;;;;4.37;1.03;;;10.40;99.90;;;;;;5129469;28;20187;-64
2023/03/16 02:02:29;;;;;;;11.67;1.77;;;10.90;99.90;;;;;;5119219;28;20222;-64
2023/03/16 02:05:11;;;;;;;11.23;1.60;;;10.90;99.90;;;;;;5129481;28;20173;-63
2023/03/16 02:07:43;;;;;;;8.67;1.37;;;11.10;99.90;;;;;;5124531;28;20632;-64
2023/03/16 02:10:11;;;;;;;15.80;1.93;;;10.90;99.90;;;;;;5132208;27;20163;-64
2023/03/16 02:12:37;;;;;;;7.17;1.30;;;10.90;99.90;;;;;;5135751;27;20278;-64
2023/03/16 02:15:03;;;;;;;11.10;1.60;;;10.90;99.90;;;;;;5134854;27;20572;-63
2023/03/16 02:17:31;;;;;;;14.70;2.00;;;10.90;99.90;;;;;;5135154;27;20208;-65
2023/03/16 02:20:22;;;;;;;9.13;1.60;;;10.80;99.90;;;;;;5135432;27;20289;-65
2023/03/16 02:22:53;;;;;;;10.10;1.77;;;10.90;99.90;;;;;;5129604;27;20202;-65
2023/03/16 02:25:24;;;;;;;4.17;1.20;;;10.90;99.90;;;;;;5127051;27;20174;-65
2023/03/16 02:28:07;;;;;;;13.33;2.57;;;10.60;99.90;;;;;;5134143;27;20205;-65
2023/03/16 02:30:33;;;;;;;12.47;2.03;;;10.90;99.90;;;;;;5114589;28;20178;-65
2023/03/16 02:32:59;;;;;;;11.17;1.73;;;10.90;99.90;;;;;;5113994;28;20175;-65
2023/03/16 02:35:25;;;;;;;11.40;1.97;;;10.90;99.90;;;;;;5114253;28;20275;-65
2023/03/16 02:37:51;;;;;;;13.73;2.40;;;10.80;99.90;;;;;;5113805;28;20638;-65
2023/03/16 02:40:28;;;;;;;14.17;2.40;;;10.90;99.90;;;;;;5115849;27;20174;-65
2023/03/16 02:43:01;;;;;;;11.27;1.97;;;10.90;99.90;;;;;;5134370;27;20177;-64
2023/03/16 02:45:34;;;;;;;9.53;1.77;;;10.80;99.90;;;;;;5124515;27;20187;-63
2023/03/16 02:48:04;;;;;;;10.37;2.20;;;10.70;99.90;;;;;;5127501;27;20312;-63
2023/03/16 02:50:30;;;;;;;13.00;2.33;;;10.90;99.90;;;;;;5127952;27;20201;-64
2023/03/16 02:52:55;;;;;;;12.30;2.30;;;10.80;99.90;;;;;;5135088;27;20209;-64
2023/03/16 02:55:21;;;;;;;12.80;1.30;;;10.90;99.90;;;;;;5101859;28;20672;-64
2023/03/16 02:57:47;;;;;;;11.37;1.37;;;10.90;99.90;;;;;;5117173;27;20212;-63
2023/03/16 03:00:17;;;;;;;8.10;1.80;;;10.60;99.90;;;;;;5121658;27;20179;-63
2023/03/16 03:02:44;;;;;;;12.23;1.63;;;10.70;99.90;;;;;;5130121;27;20182;-63
2023/03/16 03:05:10;;;;;;;14.50;2.40;;;11.00;99.90;;;;;;5131083;27;20216;-63
2023/03/16 03:07:36;;;;;;;9.27;2.13;;;10.60;99.90;;;;;;5118101;27;20196;-62
2023/03/16 03:10:04;;;;;;;11.87;2.30;;;10.30;99.90;;;;;;5122574;27;20174;-63
2023/03/16 03:12:31;;;;;;;7.97;1.30;;;10.50;99.90;;;;;;5120150;27;20186;-63
2023/03/16 03:14:56;;;;;;;5.43;1.30;;;10.60;99.90;;;;;;5134296;27;20218;-63
2023/03/16 03:17:28;;;;;;;7.03;1.10;;;10.30;99.90;;;;;;5126177;27;20613;-63
2023/03/16 03:19:55;;;;;;;6.30;1.20;;;10.30;99.90;;;;;;5094814;28;20172;-63
2023/03/16 03:22:21;;;;;;;4.87;0.90;;;10.50;99.90;;;;;;5111515;27;20228;-63
2023/03/16 03:24:46;;;;;;;4.03;1.13;;;10.60;99.90;;;;;;5123903;27;20183;-63
2023/03/16 03:27:12;;;;;;;5.63;1.30;;;;;;;;;;5124583;27;20174;-63
2023/03/16 03:29:38;;;;;;;4.77;0.83;;;10.40;99.90;;;;;;5132351;27;20549;-63
2023/03/16 03:32:04;;;;;;;3.17;0.90;;;10.30;99.90;;;;;;5132282;27;20539;-64
2023/03/16 03:34:30;;;;;;;3.07;1.00;;;10.30;99.90;;;;;;5132396;27;20202;-64
2023/03/16 03:36:56;;;;;;;6.80;0.97;;;10.30;99.90;;;;;;5132595;27;20579;-64
2023/03/16 03:39:23;;;;;;;7.20;1.33;;;10.30;99.90;;;;;;5132012;27;20167;-64
2023/03/16 03:41:48;;;;;;;3.90;0.90;;;10.30;99.90;;;;;;5132376;27;20667;-62
2023/03/16 03:44:14;;;;;;;5.00;1.00;;;;;;;;;;5130291;27;20202;-65
2023/03/16 03:46:40;;;;;;;7.73;1.50;;;10.40;99.90;;;;;;5128804;27;20636;-62
2023/03/16 03:49:06;;;;;;;3.40;0.70;;;10.50;99.90;;;;;;5132408;27;20178;-62
2023/03/16 03:51:32;;;;;;;3.93;0.70;;;10.40;99.90;;;;;;5132010;27;20596;-63
2023/03/16 03:53:57;;;;;;;3.93;1.03;;;10.20;99.90;;;;;;5132052;27;20209;-63
2023/03/16 03:56:24;;;;;;;2.70;0.90;;;10.50;99.90;;;;;;5128413;27;20187;-63
2023/03/16 03:58:49;;;;;;;10.70;1.33;;;10.50;99.90;;;;;;5130387;27;20167;-63
2023/03/16 04:01:15;;;;;;;8.23;1.60;;;10.70;99.90;;;;;;5118325;27;20605;-63
2023/03/16 04:03:41;;;;;;;6.40;1.50;;;10.10;99.90;;;;;;5125684;27;20198;-63
2023/03/16 04:06:07;;;;;;;7.83;1.73;;;10.50;99.90;;;;;;5117311;27;20171;-63
2023/03/16 04:08:34;;;;;;;7.57;1.60;;;10.60;99.90;;;;;;5115706;27;20186;-62
2023/03/16 04:10:59;;;;;;;3.50;1.43;;;10.40;99.90;;;;;;5130295;27;20177;-63
2023/03/16 04:13:25;;;;;;;5.93;1.43;;;10.50;99.90;;;;;;5113463;27;20179;-62
2023/03/16 04:15:58;;;;;;;6.33;1.30;;;10.50;99.90;;;;;;5112144;27;20199;-63
2023/03/16 04:18:24;;;;;;;6.40;1.47;;;10.50;99.90;;;;;;5114578;27;20227;-63
2023/03/16 04:20:52;;;;;;;11.27;1.30;;;10.40;99.90;;;;;;5129523;27;20178;-63
2023/03/16 04:23:18;;;;;;;4.90;0.87;;;10.50;99.90;;;;;;5111903;27;20241;-64
2023/03/16 04:25:45;;;;;;;11.17;1.90;;;10.80;99.90;;;;;;5112705;27;20169;-63
2023/03/16 04:28:10;;;;;;;9.00;1.67;;;10.40;99.90;;;;;;5118502;27;20185;-63
2023/03/16 04:30:36;;;;;;;9.70;1.40;;;10.50;99.90;;;;;;5132507;27;20584;-63
2023/03/16 04:33:02;;;;;;;8.17;1.80;;;10.60;99.90;;;;;;5131475;27;20209;-63
2023/03/16 04:35:27;;;;;;;3.73;1.00;;;10.70;99.90;;;;;;5112142;27;20210;-63
2023/03/16 04:37:53;;;;;;;13.27;1.87;;;10.70;99.90;;;;;;5131810;27;20934;-63
2023/03/16 04:40:19;;;;;;;9.43;1.80;;;10.80;99.90;;;;;;5128305;27;20182;-63
2023/03/16 04:42:46;;;;;;;7.87;1.80;;;10.70;99.90;;;;;;5111743;27;20269;-63
2023/03/16 04:45:13;;;;;;;21.77;3.00;;;10.70;99.90;;;;;;5132002;27;20213;-63
2023/03/16 04:47:39;;;;;;;9.10;1.40;;;10.80;99.90;;;;;;5115177;27;20185;-64
2023/03/16 04:50:05;;;;;;;11.43;1.93;;;10.70;99.90;;;;;;5109078;27;20178;-63
2023/03/16 04:52:31;;;;;;;6.33;1.00;;;10.60;99.90;;;;;;5127378;27;20642;-63
2023/03/16 04:54:57;;;;;;;6.30;1.37;;;10.50;99.90;;;;;;5111894;27;20237;-64
2023/03/16 04:57:23;;;;;;;5.20;1.00;;;10.70;99.90;;;;;;5118376;27;20183;-65
2023/03/16 04:59:49;;;;;;;8.60;1.40;;;;;;;;;;5126952;27;20187;-65
2023/03/16 05:02:16;;;;;;;9.50;1.10;;;10.60;99.90;;;;;;5128702;27;20191;-64
2023/03/16 05:04:42;;;;;;;19.90;2.03;;;10.60;99.90;;;;;;5124151;27;20198;-65
2023/03/16 05:07:08;;;;;;;4.10;1.00;;;10.60;99.90;;;;;;5116370;27;20202;-64
2023/03/16 05:09:34;;;;;;;7.57;1.40;;;;;;;;;;5136393;27;20189;-64
2023/03/16 05:11:59;;;;;;;5.57;1.00;;;10.50;99.90;;;;;;5131641;27;20163;-64
2023/03/16 05:14:25;;;;;;;10.07;1.30;;;10.50;99.90;;;;;;5131238;27;20256;-64
2023/03/16 05:16:51;;;;;;;7.00;1.23;;;10.40;99.90;;;;;;5131269;27;20174;-64
2023/03/16 05:19:17;;;;;;;6.63;1.17;;;10.20;99.90;;;;;;5131064;27;20178;-65
2023/03/16 05:21:44;;;;;;;9.57;1.30;;;10.40;99.90;;;;;;5143223;27;20182;-65
2023/03/16 05:24:11;;;;;;;6.50;1.37;;;10.40;99.90;;;;;;5131991;27;20178;-64
2023/03/16 05:26:37;;;;;;;8.00;1.37;;;10.40;99.90;;;;;;5131164;27;20675;-65
2023/03/16 05:29:03;;;;;;;7.83;1.63;;;10.40;99.90;;;;;;5131026;27;20167;-63
2023/03/16 05:31:31;;;;;;;10.13;1.80;;;10.40;99.90;;;;;;5131278;27;20537;-64
2023/03/16 05:33:57;;;;;;;8.20;1.20;;;10.50;99.90;;;;;;5131629;27;20168;-64
2023/03/16 05:36:23;;;;;;;9.17;1.57;;;10.30;99.90;;;;;;5127845;27;20186;-65
2023/03/16 05:38:50;;;;;;;5.00;1.37;;;10.40;99.90;;;;;;5128724;27;20198;-63
2023/03/16 05:41:17;;;;;;;6.17;1.43;;;10.50;99.90;;;;;;5131649;27;20644;-63
2023/03/16 05:43:43;;;;;;;13.73;1.30;;;10.50;99.90;;;;;;5131091;27;20171;-63
2023/03/16 05:46:09;;;;;;;10.93;1.57;;;10.50;99.90;;;;;;5129755;27;20177;-63
2023/03/16 05:48:36;;;;;;;10.97;1.33;;;10.50;99.90;;;;;;5130536;27;20179;-63
2023/03/16 05:51:05;;;;;;;9.07;1.70;;;10.50;99.90;;;;;;5131388;27;20641;-63
2023/03/16 05:53:32;;;;;;;11.73;1.47;;;10.60;99.90;;;;;;5130686;27;20178;-64
2023/03/16 05:56:00;;;;;;;14.27;2.17;;;10.40;99.90;;;;;;5130870;27;20222;-64
2023/03/16 05:58:25;;;;;;;13.37;1.30;;;10.00;99.90;;;;;;5130578;27;20173;-64
2023/03/16 06:00:51;;;;;;;15.87;2.03;;;10.80;99.90;;;;;;5131296;28;20178;-64
2023/03/16 06:03:17;;;;;;;11.40;1.73;;;;;;;;;;5131095;28;20176;-64
2023/03/16 06:05:43;;;;;;;10.90;1.63;;;10.40;99.90;;;;;;5130307;28;20205;-63
2023/03/16 06:08:08;;;;;;;12.17;1.73;;;10.50;99.90;;;;;;5130308;28;20266;-63
2023/03/16 06:10:35;;;;;;;8.57;1.60;;;10.60;99.90;;;;;;5130334;28;20166;-64
2023/03/16 06:13:00;;;;;;;8.77;1.63;;;10.60;99.90;;;;;;5130997;28;20504;-64
2023/03/16 06:15:29;;;;;;;15.93;2.10;;;10.60;99.90;;;;;;5131220;28;20718;-64
2023/03/16 06:17:55;;;;;;;12.97;1.30;;;10.60;99.90;;;;;;5129934;28;20212;-64
2023/03/16 06:20:20;;;;;;;5.33;1.13;;;10.70;99.90;;;;;;5129961;28;20250;-64
2023/03/16 06:22:46;;;;;;;11.37;1.83;;;10.80;99.90;;;;;;5129711;28;20173;-64
2023/03/16 06:25:12;;;;;;;12.97;1.80;;;10.50;99.90;;;;;;5130556;28;20165;-64
2023/03/16 06:27:38;;;;;;;9.20;1.67;;;11.00;99.90;;;;;;5131282;28;20159;-64
2023/03/16 06:30:10;;;;;;;22.30;2.53;;;10.50;99.90;;;;;;5131019;28;20178;-65
2023/03/16 06:32:36;;;;;;;10.23;2.10;;;10.60;99.90;;;;;;5124160;28;20178;-65
2023/03/16 06:35:03;;;;;;;12.23;1.87;;;10.70;99.90;;;;;;5128990;28;20281;-65
2023/03/16 06:37:29;;;;;;;21.27;2.60;;;10.70;99.90;;;;;;5130350;28;20713;-65
2023/03/16 06:39:55;;;;;;;8.17;1.80;;;13.10;99.90;;;;;;5130587;28;20170;-65
2023/03/16 06:42:21;;;;;;;12.77;2.00;;;10.70;99.90;;;;;;5130557;28;20794;-65
2023/03/16 06:44:47;;;;;;;12.97;1.97;;;10.60;99.90;;;;;;5130321;28;20649;-65
2023/03/16 06:47:12;;;;;;;13.47;2.33;;;10.60;99.90;;;;;;5130540;28;20177;-65
2023/03/16 06:49:38;;;;;;;19.70;2.13;;;10.70;99.90;;;;;;5130481;28;20166;-66
2023/03/16 06:52:04;;;;;;;7.57;2.00;;;10.70;99.90;;;;;;5130745;28;20556;-66
2023/03/16 06:54:32;;;;;;;12.13;2.33;;;10.70;99.90;;;;;;5129888;28;20640;-66
2023/03/16 06:56:58;;;;;;;14.43;2.30;;;10.70;99.90;;;;;;5119182;28;20645;-66
2023/03/16 06:59:24;;;;;;;10.00;2.03;;;10.60;99.90;;;;;;5130553;27;20174;-66
2023/03/16 07:01:49;;;;;;;16.77;2.90;;;10.50;99.90;;;;;;5119146;27;20185;-66
2023/03/16 07:04:15;;;;;;;12.47;2.00;;;10.70;99.90;;;;;;5125978;27;20183;-66
2023/03/16 07:06:41;;;;;;;10.40;1.93;;;;;;;;;;5130498;27;20650;-65
2023/03/16 07:09:07;;;;;;;12.37;1.57;;;10.70;99.90;;;;;;5113418;28;20662;-66
2023/03/16 07:11:33;;;;;;;6.20;1.93;;;;;;;;;;5121340;27;20171;-65
2023/03/16 07:13:59;;;;;;;10.03;1.90;;;10.70;99.90;;;;;;5134127;27;20175;-65
2023/03/16 07:16:25;;;;;;;11.80;1.80;;;10.50;99.90;;;;;;5123233;27;20183;-66
2023/03/16 07:18:51;;;;;;;11.10;1.90;;;10.40;99.90;;;;;;5116759;27;20178;-69
2023/03/16 07:21:17;;;;;;;14.97;2.50;;;10.40;99.90;;;;;;5124078;27;20175;-69
2023/03/16 07:23:43;;;;;;;7.57;2.07;;;10.40;99.90;;;;;;5129131;27;20251;-70
2023/03/16 07:26:10;;;;;;;12.93;2.83;;;10.30;99.90;;;;;;5117421;27;20182;-69
2023/03/16 07:28:37;;;;;;;10.23;2.03;;;10.60;99.90;;;;;;5117134;27;20191;-69
2023/03/16 07:31:04;;;;;;;9.10;1.70;;;10.30;99.90;;;;;;5132869;27;20171;-69
2023/03/16 07:33:33;;;;;;;14.17;2.77;;;10.40;99.90;;;;;;5127286;27;20232;-69
2023/03/16 07:35:59;;;;;;;10.23;2.20;;;10.30;99.90;;;;;;5134335;27;20206;-69
2023/03/16 07:38:25;;;;;;;10.50;2.50;;;10.40;99.90;;;;;;5124713;27;20266;-66
2023/03/16 07:40:53;;;;;;;11.60;2.03;;;10.40;99.90;;;;;;5121765;27;20656;-65
2023/03/16 07:43:19;;;;;;;6.90;1.70;;;;;;;;;;5132839;27;20163;-65
2023/03/16 07:45:50;;;;;;;5.73;2.07;;;11.90;99.90;;;;;;5133743;27;20182;-65
2023/03/16 07:48:16;;;;;;;10.67;1.77;;;10.50;99.90;;;;;;5133548;27;20239;-64
2023/03/16 07:50:42;;;;;;;7.57;1.73;;;10.40;99.90;;;;;;5133545;27;20166;-65
2023/03/16 07:53:08;;;;;;;12.97;2.37;;;10.60;99.90;;;;;;5133162;27;20159;-65
2023/03/16 07:55:35;;;;;;;10.23;1.80;;;10.30;99.90;;;;;;5132065;27;20218;-65
2023/03/16 07:58:01;;;;;;;13.33;1.90;;;10.40;99.90;;;;;;5132553;27;20249;-64
2023/03/16 08:00:27;;;;;;;12.23;2.30;;;;;;;;;;5133732;27;20167;-64
2023/03/16 08:02:55;;;;;;;13.83;2.40;;;10.70;99.90;;;;;;5133270;27;20198;-65
2023/03/16 08:05:20;;;;;;;11.77;1.80;;;10.60;99.90;;;;;;5121186;27;20232;-64
2023/03/16 08:07:46;;;;;;;7.57;1.40;;;10.70;99.90;;;;;;5133542;27;20175;-65
2023/03/16 08:10:12;;;;;;;13.90;2.03;;;10.60;99.90;;;;;;5132017;27;20185;-65
2023/03/16 08:12:37;;;;;;;6.67;1.53;;;10.80;99.90;;;;;;5133548;27;20177;-64
2023/03/16 08:15:04;;;;;;;10.73;1.07;;;10.70;99.90;;;;;;5129677;27;20673;-65
2023/03/16 08:17:31;;;;;;;13.77;1.90;;;10.70;99.90;;;;;;5113702;27;20179;-64
2023/03/16 08:19:56;;;;;;;13.20;2.13;;;10.70;99.90;;;;;;5113089;27;20183;-64
2023/03/16 08:22:23;;;;;;;10.93;1.93;;;10.70;99.90;;;;;;5111839;28;20179;-64
2023/03/16 08:24:49;;;;;;;7.50;1.77;;;10.80;99.90;;;;;;5106305;28;20398;-65
2023/03/16 08:27:14;;;;;;;8.30;1.70;;;10.80;99.90;;;;;;5111691;28;20159;-66
2023/03/16 08:29:40;;;;;;;5.83;1.17;;;11.10;99.90;;;;;;5110889;28;20182;-65
2023/03/16 08:32:06;;;;;;;6.23;1.10;;;10.80;99.90;;;;;;5112407;28;20183;-66
2023/03/16 08:34:32;;;;;;;7.10;1.33;;;11.00;99.90;;;;;;5111680;28;20281;-66
2023/03/16 08:36:58;;;;;;;7.60;1.50;;;10.90;99.90;;;;;;5119565;27;20245;-69
2023/03/16 08:39:24;;;;;;;8.37;1.47;;;10.90;99.90;;;;;;5111345;28;20179;-70
2023/03/16 08:41:50;;;;;;;6.70;0.90;;;10.80;99.90;;;;;;5112317;28;20159;-70
2023/03/16 08:44:16;;;;;;;11.07;1.80;;;11.00;99.90;;;;;;5111821;28;20179;-67
2023/03/16 08:46:43;;;;;;;4.90;1.70;;;11.00;99.90;;;;;;5122474;27;20645;-67
2023/03/16 08:49:09;;;;;;;6.30;1.40;;;11.20;99.90;;;;;;5115941;27;20187;-67
2023/03/16 08:51:35;;;;;;;5.43;1.37;;;11.20;99.90;;;;;;5113796;27;20538;-66
2023/03/16 08:54:01;;;;;;;11.20;1.80;;;11.10;99.90;;;;;;5113062;27;20270;-67
2023/03/16 08:56:29;;;;;;;14.63;2.10;;;11.30;99.90;;;;;;5112076;28;20199;-66
2023/03/16 08:58:56;;;;;;;8.90;1.60;;;11.10;99.90;;;;;;5111970;27;20197;-66
2023/03/16 09:01:22;;;;;;;12.83;1.90;;;11.20;99.90;;;;;;5112424;28;20292;-66
2023/03/16 09:03:50;;;;;;;8.57;1.63;;;11.10;99.90;;;;;;5119060;27;20162;-68
2023/03/16 09:06:16;;;;;;;11.00;2.10;;;11.00;99.90;;;;;;5119775;27;20645;-68
2023/03/16 09:08:44;;;;;;;10.30;1.57;;;11.00;99.90;;;;;;5111343;28;20175;-68
2023/03/16 09:11:16;;;;;;;9.40;1.90;;;11.00;99.90;;;;;;5130446;27;20166;-67
2023/03/16 09:13:43;;;;;;;5.67;1.50;;;11.20;99.90;;;;;;5111429;28;20258;-68
2023/03/16 09:16:10;;;;;;;10.17;1.83;;;11.00;99.90;;;;;;5111597;28;20697;-67
2023/03/16 09:18:36;;;;;;;15.10;1.97;;;10.90;99.90;;;;;;5104588;28;20187;-67
2023/03/16 09:21:04;;;;;;;13.80;2.53;;;11.00;99.90;;;;;;5113818;27;20162;-68
2023/03/16 09:23:31;;;;;;;6.53;1.50;;;11.10;99.90;;;;;;5108999;27;20183;-66
2023/03/16 09:26:04;;;;;;;8.73;1.40;;;11.10;99.90;;;;;;5111406;28;20167;-66
2023/03/16 09:28:30;;;;;;;12.13;2.40;;;11.10;99.90;;;;;;5110856;28;20228;-66
2023/03/16 09:30:56;;;;;;;7.80;1.83;;;11.20;99.90;;;;;;5111869;28;20159;-66
2023/03/16 09:33:23;;;;;;;14.67;2.30;;;11.20;99.90;;;;;;5111769;28;20250;-67
2023/03/16 09:35:50;;;;;;;10.87;1.87;;;11.40;99.90;;;;;;5110837;28;20203;-66
2023/03/16 09:38:17;;;;;;;14.40;1.97;;;11.30;99.90;;;;;;5109764;28;20167;-66
2023/03/16 09:40:44;;;;;;;10.83;1.70;;;11.40;99.90;;;;;;5109848;28;20179;-66
2023/03/16 09:43:43;;;;;;;17.27;2.20;;;11.50;99.90;;;;;;5110052;28;20164;-67
2023/03/16 09:46:20;;;;;;;10.53;1.90;;;11.50;99.90;;;;;;5110190;28;20381;-67
2023/03/16 09:48:47;;;;;;;8.63;2.03;;;11.70;99.90;;;;;;5110134;28;20159;-67
2023/03/16 09:51:37;;;;;;;14.13;1.90;;;11.60;99.90;;;;;;5110736;28;20661;-67
2023/03/16 09:54:13;;;;;;;12.67;1.90;;;11.70;99.90;;;;;;5111317;28;20293;-66
2023/03/16 09:56:42;;;;;;;9.43;1.80;;;11.70;99.90;;;;;;5111380;28;20166;-67
2023/03/16 09:59:12;;;;;;;10.53;1.50;;;11.70;99.90;;;;;;5111494;28;20179;-66
2023/03/16 10:01:51;;;;;;;14.57;1.77;;;11.70;99.90;;;;;;5111380;28;20312;-66
2023/03/16 10:04:26;;;;;;;8.87;1.73;;;11.80;99.90;;;;;;5111497;28;20515;-68
2023/03/16 10:07:09;;;;;;;14.37;2.00;;;11.80;99.90;;;;;;5093078;28;20211;-66
2023/03/16 10:10:01;;;;;;;9.77;1.40;;;11.80;99.90;;;;;;5111410;28;20175;-66
2023/03/16 10:12:36;;;;;;;5.60;1.17;;;11.90;99.90;;;;;;5111412;28;20837;-67
2023/03/16 10:15:08;;;;;;;9.13;1.37;;;11.90;99.90;;;;;;5111227;28;20202;-66
2023/03/16 10:17:40;;;;;;;8.17;1.50;;;11.70;99.90;;;;;;5111346;28;20160;-67
2023/03/16 10:20:13;;;;;;;6.73;1.87;;;12.00;99.90;;;;;;5111537;28;20159;-67
2023/03/16 10:22:43;;;;;;;10.20;1.40;;;11.80;99.90;;;;;;5111370;28;20170;-67
2023/03/16 10:25:28;;;;;;;3.47;1.23;;;11.80;99.90;;;;;;5111254;28;20164;-67
2023/03/16 10:27:55;;;;;;;8.13;1.33;;;11.80;99.90;;;;;;5111282;28;20171;-67
2023/03/16 10:30:24;;;;;;;9.43;1.30;;;11.80;99.90;;;;;;5114107;28;20180;-67
2023/03/16 10:32:50;;;;;;;5.83;1.20;;;11.80;99.90;;;;;;5131205;27;20171;-66
2023/03/16 10:35:33;;;;;;;14.60;1.73;;;11.80;99.90;;;;;;5133133;27;20195;-66
2023/03/16 10:37:59;;;;;;;5.50;1.53;;;11.80;99.90;;;;;;5115267;28;20167;-67
2023/03/16 10:40:25;;;;;;;10.80;1.47;;;11.80;99.90;;;;;;5115057;28;20638;-67
2023/03/16 10:42:51;;;;;;;9.00;2.13;;;11.90;99.90;;;;;;5115185;28;20177;-67
2023/03/16 10:45:28;;;;;;;16.27;1.93;;;12.10;99.90;;;;;;5115161;28;20199;-66
2023/03/16 10:48:12;;;;;;;9.70;1.60;;;12.10;99.90;;;;;;5121669;27;20234;-67
2023/03/16 10:50:38;;;;;;;19.67;1.47;;;11.90;99.90;;;;;;5135449;27;20175;-67
2023/03/16 10:53:09;;;;;;;15.33;1.83;;;12.10;99.90;;;;;;5135539;27;20173;-67
2023/03/16 10:55:42;;;;;;;10.23;1.73;;;12.30;99.90;;;;;;5135150;27;20718;-67
2023/03/16 10:58:08;;;;;;;11.50;1.43;;;12.10;99.90;;;;;;5135247;27;20166;-67
2023/03/16 11:00:37;;;;;;;15.43;2.10;;;12.30;99.90;;;;;;5135233;27;20239;-67
2023/03/16 11:03:34;;;;;;;6.67;1.43;;;12.40;99.90;;;;;;5135331;27;20279;-67
2023/03/16 11:06:02;;;;;;;4.60;1.20;;;12.70;99.90;;;;;;5121138;27;20222;-67
2023/03/16 11:08:33;;;;;;;6.30;1.70;;;12.50;99.90;;;;;;5116800;27;20198;-66
2023/03/16 11:11:07;;;;;;;12.07;1.90;;;12.40;99.90;;;;;;5135261;27;20163;-67
2023/03/16 11:13:36;;;;;;;3.63;0.83;;;12.40;99.90;;;;;;5133998;27;20223;-69
2023/03/16 11:16:16;;;;;;;11.93;1.30;;;12.00;99.90;;;;;;5128870;27;20214;-67
2023/03/16 11:18:46;;;;;;;7.97;1.50;;;12.10;99.90;;;;;;5134442;27;20186;-67
2023/03/16 11:21:17;;;;;;;11.83;1.70;;;12.20;99.90;;;;;;5134610;27;20163;-68
2023/03/16 11:23:50;;;;;;;12.77;2.10;;;12.10;99.90;;;;;;5115727;27;20224;-68
2023/03/16 11:26:39;;;;;;;10.80;1.80;;;12.40;99.90;;;;;;5134071;27;20167;-68
2023/03/16 11:29:28;;;;;;;10.00;1.60;;;12.50;99.90;;;;;;5115761;27;20170;-68
2023/03/16 11:32:00;;;;;;;13.13;2.10;;;12.50;99.90;;;;;;5093835;27;20178;-68
2023/03/16 11:34:30;;;;;;;5.97;1.23;;;12.60;99.90;;;;;;5134109;27;20201;-67
2023/03/16 11:37:20;;;;;;;7.50;1.87;;;12.70;99.90;;;;;;5115570;27;20167;-67
2023/03/16 11:39:51;;;;;;;6.47;1.73;;;13.00;99.90;;;;;;5133534;27;20185;-68
2023/03/16 11:42:40;;;;;;;11.07;2.77;;;12.60;99.90;;;;;;5115461;27;20254;-67
2023/03/16 11:45:42;;;;;;;4.43;1.17;;;12.60;99.90;;;;;;5133254;27;20170;-68
2023/03/16 11:48:16;;;;;;;10.43;2.00;;;12.80;99.90;;;;;;5115537;27;20205;-66
2023/03/16 11:51:00;;;;;;;14.23;2.47;;;12.90;99.90;;;;;;5133634;27;20249;-67
2023/03/16 11:53:35;;;;;;;9.30;1.80;;;12.40;99.90;;;;;;5133646;27;20186;-67
2023/03/16 11:56:16;;;;;;;13.40;1.73;;;12.40;99.90;;;;;;5132805;27;20576;-66
2023/03/16 11:59:17;;;;;;;11.27;1.63;;;12.10;99.90;;;;;;5132732;27;20165;-66
2023/03/16 12:02:01;;;;;;;11.90;2.30;;;12.10;99.90;;;;;;5132400;27;20174;-66
2023/03/16 12:04:55;;;;;;;10.90;2.17;;;11.90;99.90;;;;;;5127007;27;20194;-67
2023/03/16 12:07:24;;;;;;;13.07;1.93;;;11.90;99.90;;;;;;5133722;27;20167;-67
2023/03/16 12:10:17;;;;;;;7.57;1.43;;;11.90;99.90;;;;;;5132754;27;20253;-67
2023/03/16 12:12:59;;;;;;;11.17;1.87;;;12.00;99.90;;;;;;5133451;27;20170;-66
2023/03/16 12:15:33;;;;;;;6.90;1.57;;;12.00;99.90;;;;;;5133217;27;20289;-66
2023/03/16 12:18:05;;;;;;;5.90;1.53;;;11.80;99.90;;;;;;5115140;27;20177;-66
2023/03/16 12:20:40;;;;;;;8.57;1.20;;;11.90;99.90;;;;;;5133646;27;20174;-66
2023/03/16 12:23:22;;;;;;;15.00;2.07;;;11.90;99.90;;;;;;5133247;27;20162;-66
2023/03/16 12:25:49;;;;;;;7.00;1.17;;;11.90;99.90;;;;;;5132225;27;20223;-67
2023/03/16 12:28:23;;;;;;;9.43;1.70;;;11.90;99.90;;;;;;5127028;27;20171;-67
2023/03/16 12:31:16;;;;;;;14.50;2.00;;;12.00;99.90;;;;;;5131611;27;20541;-67
2023/03/16 12:34:03;;;;;;;12.47;2.20;;;11.90;99.90;;;;;;5120226;27;20194;-67
2023/03/16 12:36:38;;;;;;;8.80;2.23;;;11.80;99.90;;;;;;5138148;27;20205;-66
2023/03/16 12:39:24;;;;;;;12.23;2.10;;;11.80;99.90;;;;;;5132016;27;20170;-67
2023/03/16 12:42:12;;;;;;;7.70;1.90;;;11.50;99.90;;;;;;5131918;27;20699;-67
2023/03/16 12:44:53;;;;;;;10.23;1.70;;;11.50;99.90;;;;;;5131802;27;20253;-66
2023/03/16 12:47:36;;;;;;;5.63;1.37;;;11.40;99.90;;;;;;5132177;27;20192;-66
2023/03/16 12:50:05;;;;;;;10.97;1.53;;;11.30;99.90;;;;;;5126446;27;20221;-66
2023/03/16 12:52:42;;;;;;;8.10;1.60;;;11.40;99.90;;;;;;5111283;28;20698;-66
2023/03/16 12:55:11;;;;;;;10.53;1.60;;;11.20;99.90;;;;;;5109618;28;20219;-66
2023/03/16 12:57:39;;;;;;;6.53;2.00;;;11.30;99.90;;;;;;5111852;28;20316;-66